sensor_id;sensor_type;location;lat;lon;timestamp;pressure;altitude;pressure_sealevel;temperature;humidity
11314;BME280;5712;48.858;9.206;2022-07-23T00:00:03;98117.97;;;24.47;63.26
11314;BME280;5712;48.858;9.206;2022-07-23T00:02:29;98121.03;;;24.44;62.18
11314;BME280;5712;48.858;9.206;2022-07-23T00:04:57;98111.53;;;24.48;59.36
11314;BME280;5712;48.858;9.206;2022-07-23T00:07:24;98093.25;;;24.50;58.09
11314;BME280;5712;48.858;9.206;2022-07-23T00:09:50;98087.56;;;24.45;58.22
11314;BME280;5712;48.858;9.206;2022-07-23T00:12:17;98099.88;;;24.48;57.94
11314;BME280;5712;48.858;9.206;2022-07-23T00:14:43;98092.34;;;24.43;58.15
11314;BME280;5712;48.858;9.206;2022-07-23T00:17:10;98092.78;;;24.47;57.33
11314;BME280;5712;48.858;9.206;2022-07-23T00:19:36;98091.56;;;24.49;57.21
11314;BME280;5712;48.858;9.206;2022-07-23T00:22:04;98079.53;;;24.52;57.12
11314;BME280;5712;48.858;9.206;2022-07-23T00:24:30;98082.44;;;24.50;57.19
11314;BME280;5712;48.858;9.206;2022-07-23T00:26:57;98085.78;;;24.52;56.85
11314;BME280;5712;48.858;9.206;2022-07-23T00:29:23;98085.97;;;24.51;56.77
11314;BME280;5712;48.858;9.206;2022-07-23T00:31:50;98079.09;;;24.48;57.34
11314;BME280;5712;48.858;9.206;2022-07-23T00:34:17;98077.03;;;24.50;57.05
11314;BME280;5712;48.858;9.206;2022-07-23T00:36:43;98071.00;;;24.48;57.57
11314;BME280;5712;48.858;9.206;2022-07-23T00:39:11;98070.09;;;24.41;57.74
11314;BME280;5712;48.858;9.206;2022-07-23T00:41:38;98061.22;;;24.47;57.72
11314;BME280;5712;48.858;9.206;2022-07-23T00:44:14;98059.94;;;24.43;58.35
11314;BME280;5712;48.858;9.206;2022-07-23T00:46:45;98064.47;;;24.43;58.43
11314;BME280;5712;48.858;9.206;2022-07-23T00:49:11;98058.88;;;24.44;58.63
11314;BME280;5712;48.858;9.206;2022-07-23T00:51:38;98064.03;;;24.39;58.27
11314;BME280;5712;48.858;9.206;2022-07-23T00:54:05;98050.47;;;24.33;58.85
11314;BME280;5712;48.858;9.206;2022-07-23T00:56:33;98039.22;;;24.29;59.43
11314;BME280;5712;48.858;9.206;2022-07-23T00:59:00;98046.63;;;24.21;60.07
11314;BME280;5712;48.858;9.206;2022-07-23T01:01:27;98067.06;;;24.09;60.17
11314;BME280;5712;48.858;9.206;2022-07-23T01:03:53;98051.19;;;23.99;60.66
11314;BME280;5712;48.858;9.206;2022-07-23T01:06:20;98048.03;;;23.96;60.64
11314;BME280;5712;48.858;9.206;2022-07-23T01:08:46;98055.75;;;23.84;60.79
11314;BME280;5712;48.858;9.206;2022-07-23T01:11:13;98057.53;;;23.77;61.10
11314;BME280;5712;48.858;9.206;2022-07-23T01:13:42;98056.50;;;23.78;61.19
11314;BME280;5712;48.858;9.206;2022-07-23T01:16:08;98059.59;;;23.75;61.62
11314;BME280;5712;48.858;9.206;2022-07-23T01:18:35;98054.19;;;23.75;61.69
11314;BME280;5712;48.858;9.206;2022-07-23T01:21:02;98054.19;;;23.75;61.61
11314;BME280;5712;48.858;9.206;2022-07-23T01:23:30;98044.44;;;23.74;61.78
11314;BME280;5712;48.858;9.206;2022-07-23T01:25:56;98030.94;;;23.74;61.78
11314;BME280;5712;48.858;9.206;2022-07-23T01:28:23;98012.41;;;23.71;62.05
11314;BME280;5712;48.858;9.206;2022-07-23T01:30:49;98021.72;;;23.69;62.35
11314;BME280;5712;48.858;9.206;2022-07-23T01:33:16;98040.16;;;23.65;62.68
11314;BME280;5712;48.858;9.206;2022-07-23T01:35:42;98036.56;;;23.58;63.39
11314;BME280;5712;48.858;9.206;2022-07-23T01:38:09;98028.84;;;23.55;63.81
11314;BME280;5712;48.858;9.206;2022-07-23T01:40:36;98038.69;;;23.48;63.61
11314;BME280;5712;48.858;9.206;2022-07-23T01:43:03;98033.44;;;23.40;64.24
11314;BME280;5712;48.858;9.206;2022-07-23T01:45:29;98031.13;;;23.37;64.25
11314;BME280;5712;48.858;9.206;2022-07-23T01:47:56;98019.03;;;23.33;64.36
11314;BME280;5712;48.858;9.206;2022-07-23T01:50:23;98035.03;;;23.35;64.73
11314;BME280;5712;48.858;9.206;2022-07-23T01:52:49;98033.72;;;23.31;65.00
11314;BME280;5712;48.858;9.206;2022-07-23T01:55:16;98041.06;;;23.22;65.78
11314;BME280;5712;48.858;9.206;2022-07-23T01:57:43;98059.16;;;23.14;67.22
11314;BME280;5712;48.858;9.206;2022-07-23T02:00:11;98051.06;;;22.99;69.90
11314;BME280;5712;48.858;9.206;2022-07-23T02:02:38;98049.59;;;22.82;70.47
11314;BME280;5712;48.858;9.206;2022-07-23T02:05:05;98049.56;;;22.68;72.04
11314;BME280;5712;48.858;9.206;2022-07-23T02:07:31;98047.16;;;22.58;72.97
11314;BME280;5712;48.858;9.206;2022-07-23T02:09:58;98038.75;;;22.53;73.63
11314;BME280;5712;48.858;9.206;2022-07-23T02:12:24;98052.31;;;22.45;75.04
11314;BME280;5712;48.858;9.206;2022-07-23T02:14:52;98068.19;;;22.32;76.02
11314;BME280;5712;48.858;9.206;2022-07-23T02:17:19;98088.13;;;22.23;75.44
11314;BME280;5712;48.858;9.206;2022-07-23T02:19:45;98097.28;;;22.14;74.76
11314;BME280;5712;48.858;9.206;2022-07-23T02:22:12;98089.63;;;22.03;74.75
11314;BME280;5712;48.858;9.206;2022-07-23T02:24:38;98078.03;;;22.03;74.67
11314;BME280;5712;48.858;9.206;2022-07-23T02:27:05;98080.41;;;21.98;74.89
11314;BME280;5712;48.858;9.206;2022-07-23T02:29:31;98088.69;;;21.96;75.71
11314;BME280;5712;48.858;9.206;2022-07-23T02:31:59;98095.91;;;21.96;75.96
11314;BME280;5712;48.858;9.206;2022-07-23T02:34:26;98094.06;;;21.96;75.78
11314;BME280;5712;48.858;9.206;2022-07-23T02:36:52;98088.31;;;21.99;75.49
11314;BME280;5712;48.858;9.206;2022-07-23T02:39:18;98115.69;;;22.03;76.04
11314;BME280;5712;48.858;9.206;2022-07-23T02:41:45;98121.97;;;21.95;77.72
11314;BME280;5712;48.858;9.206;2022-07-23T02:44:11;98137.50;;;21.85;78.70
11314;BME280;5712;48.858;9.206;2022-07-23T02:46:38;98132.50;;;21.74;78.91
11314;BME280;5712;48.858;9.206;2022-07-23T02:49:06;98131.19;;;21.70;78.57
11314;BME280;5712;48.858;9.206;2022-07-23T02:51:33;98135.38;;;21.65;78.69
11314;BME280;5712;48.858;9.206;2022-07-23T02:53:59;98141.63;;;21.57;78.91
11314;BME280;5712;48.858;9.206;2022-07-23T02:56:25;98135.91;;;21.60;78.40
11314;BME280;5712;48.858;9.206;2022-07-23T02:58:52;98144.63;;;21.62;77.71
11314;BME280;5712;48.858;9.206;2022-07-23T03:01:19;98142.97;;;21.69;77.20
11314;BME280;5712;48.858;9.206;2022-07-23T03:03:45;98138.38;;;21.78;76.33
11314;BME280;5712;48.858;9.206;2022-07-23T03:06:13;98152.28;;;21.89;75.63
11314;BME280;5712;48.858;9.206;2022-07-23T03:08:40;98156.78;;;21.97;74.90
11314;BME280;5712;48.858;9.206;2022-07-23T03:11:06;98158.75;;;22.03;74.85
11314;BME280;5712;48.858;9.206;2022-07-23T03:13:36;98159.94;;;22.00;74.37
11314;BME280;5712;48.858;9.206;2022-07-23T03:16:03;98151.41;;;21.97;74.73
11314;BME280;5712;48.858;9.206;2022-07-23T03:18:29;98161.50;;;21.95;74.71
11314;BME280;5712;48.858;9.206;2022-07-23T03:20:56;98165.38;;;21.92;75.55
11314;BME280;5712;48.858;9.206;2022-07-23T03:23:24;98157.31;;;21.92;75.75
11314;BME280;5712;48.858;9.206;2022-07-23T03:25:52;98159.69;;;21.87;75.92
11314;BME280;5712;48.858;9.206;2022-07-23T03:28:18;98154.16;;;21.81;76.56
11314;BME280;5712;48.858;9.206;2022-07-23T03:30:45;98150.97;;;21.77;76.83
11314;BME280;5712;48.858;9.206;2022-07-23T03:33:12;98155.53;;;21.77;76.93
11314;BME280;5712;48.858;9.206;2022-07-23T03:35:39;98143.81;;;21.70;77.45
11314;BME280;5712;48.858;9.206;2022-07-23T03:38:06;98153.06;;;21.67;77.82
11314;BME280;5712;48.858;9.206;2022-07-23T03:40:34;98143.13;;;21.68;77.75
11314;BME280;5712;48.858;9.206;2022-07-23T03:43:00;98159.75;;;21.63;78.07
11314;BME280;5712;48.858;9.206;2022-07-23T03:45:27;98157.13;;;21.55;78.40
11314;BME280;5712;48.858;9.206;2022-07-23T03:47:53;98156.44;;;21.53;78.73
11314;BME280;5712;48.858;9.206;2022-07-23T03:50:20;98152.38;;;21.57;78.54
11314;BME280;5712;48.858;9.206;2022-07-23T03:52:47;98151.69;;;21.63;78.06
11314;BME280;5712;48.858;9.206;2022-07-23T03:55:13;98157.72;;;21.65;78.01
11314;BME280;5712;48.858;9.206;2022-07-23T03:57:41;98158.44;;;21.67;77.78
11314;BME280;5712;48.858;9.206;2022-07-23T04:00:09;98158.75;;;21.64;77.52
11314;BME280;5712;48.858;9.206;2022-07-23T04:02:37;98160.41;;;21.65;77.46
11314;BME280;5712;48.858;9.206;2022-07-23T04:05:04;98160.78;;;21.62;77.82
11314;BME280;5712;48.858;9.206;2022-07-23T04:07:31;98156.41;;;21.61;78.10
11314;BME280;5712;48.858;9.206;2022-07-23T04:09:58;98168.19;;;21.60;78.26
11314;BME280;5712;48.858;9.206;2022-07-23T04:12:24;98159.75;;;21.63;78.41
11314;BME280;5712;48.858;9.206;2022-07-23T04:14:52;98166.84;;;21.72;78.09
11314;BME280;5712;48.858;9.206;2022-07-23T04:17:19;98164.59;;;21.84;77.13
11314;BME280;5712;48.858;9.206;2022-07-23T04:19:45;98169.75;;;21.93;76.95
11314;BME280;5712;48.858;9.206;2022-07-23T04:22:12;98169.06;;;21.99;77.08
11314;BME280;5712;48.858;9.206;2022-07-23T04:24:39;98167.84;;;22.02;77.02
11314;BME280;5712;48.858;9.206;2022-07-23T04:27:05;98167.00;;;22.01;77.09
11314;BME280;5712;48.858;9.206;2022-07-23T04:29:32;98167.84;;;22.02;76.85
11314;BME280;5712;48.858;9.206;2022-07-23T04:32:00;98169.53;;;22.03;76.53
11314;BME280;5712;48.858;9.206;2022-07-23T04:34:26;98166.69;;;22.04;76.91
11314;BME280;5712;48.858;9.206;2022-07-23T04:36:53;98166.31;;;22.07;77.22
11314;BME280;5712;48.858;9.206;2022-07-23T04:39:19;98164.94;;;22.11;77.01
11314;BME280;5712;48.858;9.206;2022-07-23T04:41:46;98176.69;;;22.18;77.14
11314;BME280;5712;48.858;9.206;2022-07-23T04:44:12;98171.22;;;22.26;76.59
11314;BME280;5712;48.858;9.206;2022-07-23T04:46:39;98169.16;;;22.36;75.86
11314;BME280;5712;48.858;9.206;2022-07-23T04:49:07;98163.75;;;22.44;75.62
11314;BME280;5712;48.858;9.206;2022-07-23T04:51:33;98161.81;;;22.53;74.95
11314;BME280;5712;48.858;9.206;2022-07-23T04:54:00;98168.69;;;22.63;74.97
11314;BME280;5712;48.858;9.206;2022-07-23T04:56:27;98173.44;;;22.76;74.28
11314;BME280;5712;48.858;9.206;2022-07-23T04:58:53;98173.75;;;22.81;74.20
11314;BME280;5712;48.858;9.206;2022-07-23T05:01:20;98178.97;;;22.82;74.44
11314;BME280;5712;48.858;9.206;2022-07-23T05:03:46;98171.88;;;22.81;74.10
11314;BME280;5712;48.858;9.206;2022-07-23T05:06:14;98180.88;;;22.74;74.26
11314;BME280;5712;48.858;9.206;2022-07-23T05:08:41;98176.22;;;22.68;74.73
11314;BME280;5712;48.858;9.206;2022-07-23T05:11:08;98181.13;;;22.64;74.92
11314;BME280;5712;48.858;9.206;2022-07-23T05:13:34;98185.19;;;22.60;75.64
11314;BME280;5712;48.858;9.206;2022-07-23T05:16:01;98181.22;;;22.71;75.99
11314;BME280;5712;48.858;9.206;2022-07-23T05:18:27;98184.91;;;22.92;74.72
11314;BME280;5712;48.858;9.206;2022-07-23T05:20:54;98189.34;;;23.30;74.38
11314;BME280;5712;48.858;9.206;2022-07-23T05:23:22;98171.78;;;23.92;70.85
11314;BME280;5712;48.858;9.206;2022-07-23T05:25:48;98182.06;;;24.74;67.61
11314;BME280;5712;48.858;9.206;2022-07-23T05:28:15;98188.97;;;25.46;65.05
11314;BME280;5712;48.858;9.206;2022-07-23T05:30:41;98198.22;;;25.92;62.23
11314;BME280;5712;48.858;9.206;2022-07-23T05:33:08;98196.63;;;25.70;62.23
11314;BME280;5712;48.858;9.206;2022-07-23T05:35:34;98204.66;;;25.30;63.40
11314;BME280;5712;48.858;9.206;2022-07-23T05:38:01;98202.28;;;24.99;64.99
11314;BME280;5712;48.858;9.206;2022-07-23T05:40:29;98208.75;;;24.77;65.69
11314;BME280;5712;48.858;9.206;2022-07-23T05:42:55;98201.13;;;24.66;66.02
11314;BME280;5712;48.858;9.206;2022-07-23T05:45:22;98213.63;;;24.67;66.03
11314;BME280;5712;48.858;9.206;2022-07-23T05:47:49;98216.72;;;24.85;65.00
11314;BME280;5712;48.858;9.206;2022-07-23T05:50:16;98213.22;;;24.91;64.15
11314;BME280;5712;48.858;9.206;2022-07-23T05:52:43;98229.47;;;24.91;64.32
11314;BME280;5712;48.858;9.206;2022-07-23T05:55:11;98233.78;;;24.86;64.84
11314;BME280;5712;48.858;9.206;2022-07-23T05:57:40;98233.69;;;24.79;65.69
11314;BME280;5712;48.858;9.206;2022-07-23T06:00:08;98240.66;;;24.67;65.25
11314;BME280;5712;48.858;9.206;2022-07-23T06:02:34;98249.22;;;24.56;64.44
11314;BME280;5712;48.858;9.206;2022-07-23T06:05:01;98253.91;;;24.33;63.64
11314;BME280;5712;48.858;9.206;2022-07-23T06:07:28;98262.88;;;24.19;64.28
11314;BME280;5712;48.858;9.206;2022-07-23T06:09:54;98253.97;;;24.04;65.21
11314;BME280;5712;48.858;9.206;2022-07-23T06:12:21;98250.44;;;23.89;65.06
11314;BME280;5712;48.858;9.206;2022-07-23T06:14:49;98253.19;;;23.81;65.06
11314;BME280;5712;48.858;9.206;2022-07-23T06:17:17;98236.44;;;23.71;64.52
11314;BME280;5712;48.858;9.206;2022-07-23T06:19:43;98220.63;;;23.68;64.63
11314;BME280;5712;48.858;9.206;2022-07-23T06:22:10;98226.94;;;23.61;64.67
11314;BME280;5712;48.858;9.206;2022-07-23T06:24:37;98222.09;;;23.56;64.32
11314;BME280;5712;48.858;9.206;2022-07-23T06:27:04;98227.38;;;23.50;64.91
11314;BME280;5712;48.858;9.206;2022-07-23T06:29:30;98218.81;;;23.46;64.81
11314;BME280;5712;48.858;9.206;2022-07-23T06:31:58;98220.97;;;23.65;64.56
11314;BME280;5712;48.858;9.206;2022-07-23T06:34:25;98231.44;;;23.97;62.59
11314;BME280;5712;48.858;9.206;2022-07-23T06:36:51;98229.88;;;24.38;61.29
11314;BME280;5712;48.858;9.206;2022-07-23T06:39:18;98247.81;;;24.75;60.01
11314;BME280;5712;48.858;9.206;2022-07-23T06:41:44;98244.06;;;24.97;58.81
11314;BME280;5712;48.858;9.206;2022-07-23T06:44:11;98248.13;;;25.07;58.77
11314;BME280;5712;48.858;9.206;2022-07-23T06:46:37;98248.56;;;24.90;59.43
11314;BME280;5712;48.858;9.206;2022-07-23T06:49:05;98255.25;;;24.73;60.43
11314;BME280;5712;48.858;9.206;2022-07-23T06:51:32;98257.91;;;24.52;61.04
11314;BME280;5712;48.858;9.206;2022-07-23T06:53:58;98265.13;;;24.30;61.47
11314;BME280;5712;48.858;9.206;2022-07-23T06:56:25;98267.38;;;24.12;62.57
11314;BME280;5712;48.858;9.206;2022-07-23T06:58:51;98278.09;;;23.91;63.52
11314;BME280;5712;48.858;9.206;2022-07-23T07:01:18;98297.00;;;23.69;64.53
11314;BME280;5712;48.858;9.206;2022-07-23T07:03:44;98296.25;;;23.46;65.59
11314;BME280;5712;48.858;9.206;2022-07-23T07:06:13;98307.75;;;23.17;66.71
11314;BME280;5712;48.858;9.206;2022-07-23T07:08:40;98303.50;;;23.00;67.79
11314;BME280;5712;48.858;9.206;2022-07-23T07:11:08;98298.50;;;22.89;68.99
11314;BME280;5712;48.858;9.206;2022-07-23T07:13:35;98301.28;;;22.73;70.82
11314;BME280;5712;48.858;9.206;2022-07-23T07:16:02;98285.94;;;22.51;72.27
11314;BME280;5712;48.858;9.206;2022-07-23T07:18:28;98298.91;;;22.48;73.10
11314;BME280;5712;48.858;9.206;2022-07-23T07:20:56;98298.75;;;22.41;73.74
11314;BME280;5712;48.858;9.206;2022-07-23T07:23:24;98293.88;;;22.45;74.59
11314;BME280;5712;48.858;9.206;2022-07-23T07:25:50;98275.75;;;22.31;75.46
11314;BME280;5712;48.858;9.206;2022-07-23T07:28:17;98261.34;;;22.16;76.15
11314;BME280;5712;48.858;9.206;2022-07-23T07:30:43;98242.47;;;21.85;78.71
11314;BME280;5712;48.858;9.206;2022-07-23T07:33:10;98255.16;;;21.13;85.33
11314;BME280;5712;48.858;9.206;2022-07-23T07:35:36;98281.47;;;20.77;91.42
11314;BME280;5712;48.858;9.206;2022-07-23T07:38:03;98284.47;;;20.50;98.40
11314;BME280;5712;48.858;9.206;2022-07-23T07:40:31;98290.09;;;20.31;100.00
11314;BME280;5712;48.858;9.206;2022-07-23T07:42:57;98288.75;;;20.27;100.00
11314;BME280;5712;48.858;9.206;2022-07-23T07:45:25;98286.31;;;20.08;100.00
11314;BME280;5712;48.858;9.206;2022-07-23T07:47:51;98300.78;;;20.15;100.00
11314;BME280;5712;48.858;9.206;2022-07-23T07:50:19;98315.31;;;20.46;100.00
11314;BME280;5712;48.858;9.206;2022-07-23T07:52:45;98322.19;;;21.14;97.10
11314;BME280;5712;48.858;9.206;2022-07-23T07:55:12;98323.72;;;21.57;93.54
11314;BME280;5712;48.858;9.206;2022-07-23T07:57:41;98335.63;;;21.86;87.84
11314;BME280;5712;48.858;9.206;2022-07-23T08:00:09;98343.69;;;22.02;89.42
11314;BME280;5712;48.858;9.206;2022-07-23T08:02:40;98363.63;;;22.16;89.65
11314;BME280;5712;48.858;9.206;2022-07-23T08:05:08;98356.75;;;22.21;89.87
11314;BME280;5712;48.858;9.206;2022-07-23T08:07:35;98346.94;;;22.28;87.90
11314;BME280;5712;48.858;9.206;2022-07-23T08:10:03;98340.56;;;22.29;85.59
11314;BME280;5712;48.858;9.206;2022-07-23T08:12:37;98334.16;;;22.30;84.69
11314;BME280;5712;48.858;9.206;2022-07-23T08:15:07;98340.69;;;22.44;81.52
11314;BME280;5712;48.858;9.206;2022-07-23T08:17:34;98352.94;;;22.54;80.83
11314;BME280;5712;48.858;9.206;2022-07-23T08:20:00;98341.22;;;22.70;81.24
11314;BME280;5712;48.858;9.206;2022-07-23T08:22:41;98347.75;;;22.83;81.22
11314;BME280;5712;48.858;9.206;2022-07-23T08:25:08;98350.50;;;22.98;80.21
11314;BME280;5712;48.858;9.206;2022-07-23T08:27:34;98337.34;;;23.03;80.20
11314;BME280;5712;48.858;9.206;2022-07-23T08:30:01;98346.91;;;23.05;80.70
11314;BME280;5712;48.858;9.206;2022-07-23T08:32:29;98334.94;;;23.08;80.64
11314;BME280;5712;48.858;9.206;2022-07-23T08:34:55;98342.41;;;23.28;79.42
11314;BME280;5712;48.858;9.206;2022-07-23T08:37:22;98341.69;;;23.71;78.48
11314;BME280;5712;48.858;9.206;2022-07-23T08:39:48;98337.69;;;24.19;76.16
11314;BME280;5712;48.858;9.206;2022-07-23T08:42:15;98336.44;;;24.50;74.04
11314;BME280;5712;48.858;9.206;2022-07-23T08:44:45;98339.31;;;24.78;73.10
11314;BME280;5712;48.858;9.206;2022-07-23T08:47:11;98328.50;;;25.13;71.57
11314;BME280;5712;48.858;9.206;2022-07-23T08:49:39;98329.97;;;25.51;70.07
11314;BME280;5712;48.858;9.206;2022-07-23T08:52:07;98328.75;;;25.81;66.87
11314;BME280;5712;48.858;9.206;2022-07-23T08:54:34;98330.63;;;26.08;63.63
11314;BME280;5712;48.858;9.206;2022-07-23T08:57:00;98334.72;;;26.25;58.32
11314;BME280;5712;48.858;9.206;2022-07-23T08:59:28;98333.34;;;26.42;58.82
11314;BME280;5712;48.858;9.206;2022-07-23T09:01:55;98331.63;;;26.35;57.17
11314;BME280;5712;48.858;9.206;2022-07-23T09:04:21;98329.97;;;26.34;60.61
11314;BME280;5712;48.858;9.206;2022-07-23T09:06:49;98330.78;;;26.34;61.67
11314;BME280;5712;48.858;9.206;2022-07-23T09:09:17;98332.13;;;26.45;61.57
11314;BME280;5712;48.858;9.206;2022-07-23T09:11:46;98330.16;;;26.66;59.30
11314;BME280;5712;48.858;9.206;2022-07-23T09:14:13;98342.53;;;26.88;59.51
11314;BME280;5712;48.858;9.206;2022-07-23T09:16:39;98334.25;;;27.02;59.23
11314;BME280;5712;48.858;9.206;2022-07-23T09:19:07;98329.47;;;27.11;58.15
11314;BME280;5712;48.858;9.206;2022-07-23T09:21:35;98331.19;;;27.19;56.82
11314;BME280;5712;48.858;9.206;2022-07-23T09:24:04;98333.19;;;27.03;55.57
11314;BME280;5712;48.858;9.206;2022-07-23T09:26:33;98337.94;;;26.82;56.42
11314;BME280;5712;48.858;9.206;2022-07-23T09:29:12;98328.88;;;26.62;56.76
11314;BME280;5712;48.858;9.206;2022-07-23T09:31:44;98324.66;;;26.53;57.54
11314;BME280;5712;48.858;9.206;2022-07-23T09:34:14;98321.41;;;26.71;56.01
11314;BME280;5712;48.858;9.206;2022-07-23T09:36:41;98334.41;;;26.82;54.44
11314;BME280;5712;48.858;9.206;2022-07-23T09:39:10;98330.88;;;26.94;53.97
11314;BME280;5712;48.858;9.206;2022-07-23T09:41:39;98332.78;;;27.00;55.94
11314;BME280;5712;48.858;9.206;2022-07-23T09:44:08;98329.47;;;27.11;55.73
11314;BME280;5712;48.858;9.206;2022-07-23T09:46:35;98324.00;;;26.98;53.68
11314;BME280;5712;48.858;9.206;2022-07-23T09:49:17;98318.16;;;26.95;53.08
11314;BME280;5712;48.858;9.206;2022-07-23T09:51:46;98324.00;;;26.98;53.34
11314;BME280;5712;48.858;9.206;2022-07-23T09:57:03;98325.97;;;26.64;55.64
11314;BME280;5712;48.858;9.206;2022-07-23T09:59:32;98328.59;;;26.51;57.38
11314;BME280;5712;48.858;9.206;2022-07-23T10:02:00;98324.00;;;26.51;57.16
11314;BME280;5712;48.858;9.206;2022-07-23T10:04:28;98328.38;;;26.52;56.91
11314;BME280;5712;48.858;9.206;2022-07-23T10:06:57;98322.84;;;26.67;58.13
11314;BME280;5712;48.858;9.206;2022-07-23T10:09:28;98329.78;;;26.82;55.00
11314;BME280;5712;48.858;9.206;2022-07-23T10:11:56;98324.34;;;26.76;52.91
11314;BME280;5712;48.858;9.206;2022-07-23T10:14:27;98319.50;;;26.65;53.32
11314;BME280;5712;48.858;9.206;2022-07-23T10:16:56;98319.38;;;26.79;50.24
11314;BME280;5712;48.858;9.206;2022-07-23T10:19:23;98322.69;;;26.75;49.81
11314;BME280;5712;48.858;9.206;2022-07-23T10:21:52;98325.59;;;26.73;50.21
11314;BME280;5712;48.858;9.206;2022-07-23T10:24:30;98324.31;;;26.69;51.35
11314;BME280;5712;48.858;9.206;2022-07-23T10:27:11;98324.78;;;26.79;50.95
11314;BME280;5712;48.858;9.206;2022-07-23T10:29:47;98318.81;;;27.03;52.59
11314;BME280;5712;48.858;9.206;2022-07-23T10:32:26;98327.00;;;27.16;52.45
11314;BME280;5712;48.858;9.206;2022-07-23T10:35:06;98329.34;;;27.38;51.51
11314;BME280;5712;48.858;9.206;2022-07-23T10:37:39;98321.22;;;27.45;50.95
11314;BME280;5712;48.858;9.206;2022-07-23T10:40:14;98322.91;;;27.59;51.41
11314;BME280;5712;48.858;9.206;2022-07-23T10:42:42;98315.38;;;27.54;51.69
11314;BME280;5712;48.858;9.206;2022-07-23T10:45:23;98315.78;;;27.64;50.38
11314;BME280;5712;48.858;9.206;2022-07-23T10:47:50;98312.66;;;27.61;49.69
11314;BME280;5712;48.858;9.206;2022-07-23T10:50:22;98319.75;;;27.62;48.83
11314;BME280;5712;48.858;9.206;2022-07-23T10:53:08;98315.81;;;27.58;48.18
11314;BME280;5712;48.858;9.206;2022-07-23T10:55:47;98320.78;;;27.74;47.92
11314;BME280;5712;48.858;9.206;2022-07-23T10:58:19;98316.84;;;27.70;47.87
11314;BME280;5712;48.858;9.206;2022-07-23T11:00:46;98315.00;;;27.77;49.23
11314;BME280;5712;48.858;9.206;2022-07-23T11:03:30;98310.56;;;27.69;49.15
11314;BME280;5712;48.858;9.206;2022-07-23T11:05:58;98310.75;;;27.68;50.39
11314;BME280;5712;48.858;9.206;2022-07-23T11:08:25;98311.22;;;27.78;50.46
11314;BME280;5712;48.858;9.206;2022-07-23T11:10:55;98310.34;;;28.10;49.49
11314;BME280;5712;48.858;9.206;2022-07-23T11:13:30;98311.97;;;28.43;48.34
11314;BME280;5712;48.858;9.206;2022-07-23T11:16:14;98317.75;;;28.60;47.29
11314;BME280;5712;48.858;9.206;2022-07-23T11:19:07;98304.63;;;28.50;45.95
11314;BME280;5712;48.858;9.206;2022-07-23T11:21:47;98299.41;;;28.49;45.22
11314;BME280;5712;48.858;9.206;2022-07-23T11:24:16;98295.69;;;28.37;46.22
11314;BME280;5712;48.858;9.206;2022-07-23T11:26:50;98300.88;;;28.38;45.16
11314;BME280;5712;48.858;9.206;2022-07-23T11:29:39;98303.63;;;28.32;46.01
11314;BME280;5712;48.858;9.206;2022-07-23T11:32:07;98291.94;;;28.25;47.37
11314;BME280;5712;48.858;9.206;2022-07-23T11:34:35;98309.47;;;28.29;44.91
11314;BME280;5712;48.858;9.206;2022-07-23T11:37:06;98298.41;;;28.37;43.96
11314;BME280;5712;48.858;9.206;2022-07-23T11:39:34;98304.34;;;28.65;44.99
11314;BME280;5712;48.858;9.206;2022-07-23T11:42:03;98296.72;;;28.86;44.99
11314;BME280;5712;48.858;9.206;2022-07-23T11:44:32;98306.28;;;29.02;44.62
11314;BME280;5712;48.858;9.206;2022-07-23T11:47:00;98303.47;;;28.77;44.75
11314;BME280;5712;48.858;9.206;2022-07-23T11:49:27;98311.91;;;28.63;44.53
11314;BME280;5712;48.858;9.206;2022-07-23T11:52:03;98305.66;;;28.56;44.46
11314;BME280;5712;48.858;9.206;2022-07-23T11:54:30;98298.97;;;28.58;45.75
11314;BME280;5712;48.858;9.206;2022-07-23T11:56:57;98306.47;;;28.63;46.18
11314;BME280;5712;48.858;9.206;2022-07-23T11:59:26;98296.19;;;28.71;46.83
11314;BME280;5712;48.858;9.206;2022-07-23T12:01:57;98290.28;;;28.74;47.05
11314;BME280;5712;48.858;9.206;2022-07-23T12:04:24;98288.59;;;28.80;46.62
11314;BME280;5712;48.858;9.206;2022-07-23T12:06:51;98291.56;;;28.72;46.73
11314;BME280;5712;48.858;9.206;2022-07-23T12:09:17;98281.72;;;28.71;46.67
11314;BME280;5712;48.858;9.206;2022-07-23T12:11:56;98291.56;;;28.72;47.18
11314;BME280;5712;48.858;9.206;2022-07-23T12:14:23;98281.72;;;28.77;45.97
11314;BME280;5712;48.858;9.206;2022-07-23T12:17:09;98281.72;;;28.71;45.78
11314;BME280;5712;48.858;9.206;2022-07-23T12:19:36;98274.34;;;28.78;45.26
11314;BME280;5712;48.858;9.206;2022-07-23T12:22:03;98272.97;;;28.69;47.30
11314;BME280;5712;48.858;9.206;2022-07-23T12:24:30;98275.88;;;28.74;46.41
11314;BME280;5712;48.858;9.206;2022-07-23T12:27:09;98276.66;;;28.81;45.02
11314;BME280;5712;48.858;9.206;2022-07-23T12:29:36;98275.13;;;28.91;45.26
11314;BME280;5712;48.858;9.206;2022-07-23T12:32:20;98275.75;;;28.93;44.79
11314;BME280;5712;48.858;9.206;2022-07-23T12:34:49;98278.66;;;29.05;45.23
11314;BME280;5712;48.858;9.206;2022-07-23T12:37:29;98281.47;;;29.23;45.18
11314;BME280;5712;48.858;9.206;2022-07-23T12:39:56;98273.19;;;29.36;45.63
11314;BME280;5712;48.858;9.206;2022-07-23T12:42:22;98277.88;;;29.60;45.57
11314;BME280;5712;48.858;9.206;2022-07-23T12:45:10;98280.19;;;29.81;43.93
11314;BME280;5712;48.858;9.206;2022-07-23T12:48:03;98284.94;;;29.67;43.47
11314;BME280;5712;48.858;9.206;2022-07-23T12:50:40;98279.91;;;29.64;44.69
11314;BME280;5712;48.858;9.206;2022-07-23T12:53:09;98284.97;;;29.61;44.68
11314;BME280;5712;48.858;9.206;2022-07-23T12:55:37;98288.25;;;29.69;44.97
11314;BME280;5712;48.858;9.206;2022-07-23T12:58:10;98276.91;;;29.72;43.47
11314;BME280;5712;48.858;9.206;2022-07-23T13:00:58;98281.03;;;29.81;44.52
11314;BME280;5712;48.858;9.206;2022-07-23T13:03:29;98284.09;;;29.67;45.01
11314;BME280;5712;48.858;9.206;2022-07-23T13:05:56;98286.59;;;29.37;45.00
11314;BME280;5712;48.858;9.206;2022-07-23T13:08:24;98284.19;;;29.23;46.08
11314;BME280;5712;48.858;9.206;2022-07-23T13:10:51;98283.22;;;29.11;45.81
11314;BME280;5712;48.858;9.206;2022-07-23T13:13:23;98288.22;;;29.14;46.85
11314;BME280;5712;48.858;9.206;2022-07-23T13:15:50;98293.81;;;29.25;46.24
11314;BME280;5712;48.858;9.206;2022-07-23T13:18:17;98292.75;;;29.26;44.24